sensor_id;sensor_type;location;lat;lon;timestamp;P1;durP1;ratioP1;P2;durP2;ratioP2
4812;SDS011;2420;51.202;8.698;2022-09-17T00:01:06;1.58;;;1.10;;
4812;SDS011;2420;51.202;8.698;2022-09-17T00:03:32;3.65;;;1.23;;
4812;SDS011;2420;51.202;8.698;2022-09-17T00:06:03;2.17;;;1.10;;
4812;SDS011;2420;51.202;8.698;2022-09-17T00:08:34;1.50;;;1.10;;
4812;SDS011;2420;51.202;8.698;2022-09-17T00:11:14;1.10;;;0.93;;
4812;SDS011;2420;51.202;8.698;2022-09-17T00:13:46;1.63;;;1.08;;
4812;SDS011;2420;51.202;8.698;2022-09-17T00:16:15;1.70;;;1.00;;
4812;SDS011;2420;51.202;8.698;2022-09-17T00:18:46;0.98;;;0.90;;
4812;SDS011;2420;51.202;8.698;2022-09-17T00:21:16;1.65;;;1.10;;
4812;SDS011;2420;51.202;8.698;2022-09-17T00:23:42;6.32;;;1.13;;
4812;SDS011;2420;51.202;8.698;2022-09-17T00:26:08;1.50;;;1.17;;
4812;SDS011;2420;51.202;8.698;2022-09-17T00:28:34;1.10;;;1.00;;
4812;SDS011;2420;51.202;8.698;2022-09-17T00:31:00;1.17;;;1.05;;
4812;SDS011;2420;51.202;8.698;2022-09-17T00:33:26;1.95;;;1.20;;
4812;SDS011;2420;51.202;8.698;2022-09-17T00:35:59;2.90;;;1.20;;
4812;SDS011;2420;51.202;8.698;2022-09-17T00:38:25;1.25;;;1.10;;
4812;SDS011;2420;51.202;8.698;2022-09-17T00:40:51;2.85;;;1.20;;
4812;SDS011;2420;51.202;8.698;2022-09-17T00:43:34;1.98;;;1.20;;
4812;SDS011;2420;51.202;8.698;2022-09-17T00:46:01;1.20;;;1.10;;
4812;SDS011;2420;51.202;8.698;2022-09-17T00:48:28;1.10;;;1.00;;
4812;SDS011;2420;51.202;8.698;2022-09-17T00:50:54;1.10;;;1.00;;
4812;SDS011;2420;51.202;8.698;2022-09-17T00:53:21;1.23;;;1.10;;
4812;SDS011;2420;51.202;8.698;2022-09-17T00:58:15;0.80;;;0.80;;
4812;SDS011;2420;51.202;8.698;2022-09-17T01:00:42;1.00;;;0.70;;
4812;SDS011;2420;51.202;8.698;2022-09-17T01:03:09;0.98;;;0.80;;
4812;SDS011;2420;51.202;8.698;2022-09-17T01:05:39;0.77;;;0.77;;
4812;SDS011;2420;51.202;8.698;2022-09-17T01:08:47;0.93;;;0.80;;
4812;SDS011;2420;51.202;8.698;2022-09-17T01:31:58;4.35;;;1.52;;
4812;SDS011;2420;51.202;8.698;2022-09-17T01:40:03;2.38;;;1.50;;
4812;SDS011;2420;51.202;8.698;2022-09-17T01:45:07;2.78;;;1.77;;
4812;SDS011;2420;51.202;8.698;2022-09-17T01:47:41;4.25;;;1.40;;
4812;SDS011;2420;51.202;8.698;2022-09-17T01:50:10;2.33;;;1.25;;
4812;SDS011;2420;51.202;8.698;2022-09-17T01:52:41;1.88;;;1.20;;
4812;SDS011;2420;51.202;8.698;2022-09-17T01:55:13;4.53;;;1.80;;
4812;SDS011;2420;51.202;8.698;2022-09-17T01:57:47;3.20;;;1.40;;
4812;SDS011;2420;51.202;8.698;2022-09-17T02:00:18;4.10;;;1.50;;
4812;SDS011;2420;51.202;8.698;2022-09-17T02:08:18;2.05;;;1.45;;
4812;SDS011;2420;51.202;8.698;2022-09-17T02:10:51;2.05;;;1.35;;
4812;SDS011;2420;51.202;8.698;2022-09-17T02:13:23;2.45;;;1.30;;
4812;SDS011;2420;51.202;8.698;2022-09-17T02:16:03;5.03;;;1.80;;
4812;SDS011;2420;51.202;8.698;2022-09-17T02:18:36;7.65;;;2.15;;
4812;SDS011;2420;51.202;8.698;2022-09-17T02:21:21;5.72;;;1.70;;
4812;SDS011;2420;51.202;8.698;2022-09-17T02:23:51;6.55;;;2.10;;
4812;SDS011;2420;51.202;8.698;2022-09-17T02:26:29;6.57;;;2.30;;
4812;SDS011;2420;51.202;8.698;2022-09-17T02:29:05;6.72;;;2.70;;
4812;SDS011;2420;51.202;8.698;2022-09-17T02:31:35;11.35;;;2.50;;
4812;SDS011;2420;51.202;8.698;2022-09-17T02:34:01;5.55;;;2.30;;
4812;SDS011;2420;51.202;8.698;2022-09-17T02:36:29;7.78;;;2.92;;
4812;SDS011;2420;51.202;8.698;2022-09-17T02:39:00;8.52;;;3.13;;
4812;SDS011;2420;51.202;8.698;2022-09-17T02:42:11;6.55;;;2.55;;
4812;SDS011;2420;51.202;8.698;2022-09-17T02:47:04;6.90;;;2.90;;
4812;SDS011;2420;51.202;8.698;2022-09-17T02:52:46;10.05;;;4.13;;
4812;SDS011;2420;51.202;8.698;2022-09-17T02:55:28;14.10;;;4.20;;
4812;SDS011;2420;51.202;8.698;2022-09-17T02:58:04;7.90;;;3.67;;
4812;SDS011;2420;51.202;8.698;2022-09-17T03:00:38;9.98;;;4.28;;
4812;SDS011;2420;51.202;8.698;2022-09-17T03:03:06;10.77;;;4.72;;
4812;SDS011;2420;51.202;8.698;2022-09-17T03:05:36;13.98;;;4.60;;
4812;SDS011;2420;51.202;8.698;2022-09-17T03:08:03;13.38;;;4.93;;
4812;SDS011;2420;51.202;8.698;2022-09-17T03:10:33;9.77;;;4.05;;
4812;SDS011;2420;51.202;8.698;2022-09-17T03:12:59;14.77;;;4.78;;
4812;SDS011;2420;51.202;8.698;2022-09-17T03:15:24;12.82;;;4.32;;
4812;SDS011;2420;51.202;8.698;2022-09-17T03:17:50;11.73;;;4.50;;
4812;SDS011;2420;51.202;8.698;2022-09-17T03:20:16;10.30;;;4.75;;
4812;SDS011;2420;51.202;8.698;2022-09-17T03:22:42;11.27;;;4.97;;
4812;SDS011;2420;51.202;8.698;2022-09-17T03:25:08;10.85;;;4.35;;
4812;SDS011;2420;51.202;8.698;2022-09-17T03:27:33;10.52;;;4.50;;
4812;SDS011;2420;51.202;8.698;2022-09-17T03:29:59;11.45;;;4.75;;
4812;SDS011;2420;51.202;8.698;2022-09-17T03:32:25;11.50;;;4.70;;
4812;SDS011;2420;51.202;8.698;2022-09-17T03:34:50;9.98;;;4.43;;
4812;SDS011;2420;51.202;8.698;2022-09-17T03:37:17;8.10;;;3.55;;
4812;SDS011;2420;51.202;8.698;2022-09-17T03:39:43;7.28;;;3.90;;
4812;SDS011;2420;51.202;8.698;2022-09-17T03:42:08;7.07;;;4.25;;
4812;SDS011;2420;51.202;8.698;2022-09-17T03:44:34;9.05;;;4.72;;
4812;SDS011;2420;51.202;8.698;2022-09-17T03:46:59;12.80;;;5.50;;
4812;SDS011;2420;51.202;8.698;2022-09-17T03:49:25;12.02;;;5.20;;
4812;SDS011;2420;51.202;8.698;2022-09-17T03:51:51;11.02;;;5.65;;
4812;SDS011;2420;51.202;8.698;2022-09-17T03:54:16;12.60;;;5.28;;
4812;SDS011;2420;51.202;8.698;2022-09-17T03:56:42;14.65;;;4.57;;
4812;SDS011;2420;51.202;8.698;2022-09-17T03:59:07;8.73;;;4.28;;
4812;SDS011;2420;51.202;8.698;2022-09-17T04:01:33;11.82;;;4.63;;
4812;SDS011;2420;51.202;8.698;2022-09-17T04:04:00;8.85;;;4.40;;
4812;SDS011;2420;51.202;8.698;2022-09-17T04:06:26;10.77;;;4.40;;
4812;SDS011;2420;51.202;8.698;2022-09-17T04:08:51;11.65;;;4.38;;
4812;SDS011;2420;51.202;8.698;2022-09-17T04:11:17;8.57;;;4.40;;
4812;SDS011;2420;51.202;8.698;2022-09-17T04:13:43;11.00;;;4.18;;
4812;SDS011;2420;51.202;8.698;2022-09-17T04:16:08;13.00;;;4.38;;
4812;SDS011;2420;51.202;8.698;2022-09-17T04:18:34;11.02;;;4.13;;
4812;SDS011;2420;51.202;8.698;2022-09-17T04:20:59;10.10;;;4.32;;
4812;SDS011;2420;51.202;8.698;2022-09-17T04:23:25;11.82;;;4.60;;
4812;SDS011;2420;51.202;8.698;2022-09-17T04:25:50;13.32;;;4.35;;
4812;SDS011;2420;51.202;8.698;2022-09-17T04:28:16;9.30;;;4.63;;
4812;SDS011;2420;51.202;8.698;2022-09-17T04:30:42;12.95;;;4.13;;
4812;SDS011;2420;51.202;8.698;2022-09-17T04:33:08;12.50;;;4.55;;
4812;SDS011;2420;51.202;8.698;2022-09-17T04:35:34;16.73;;;4.70;;
4812;SDS011;2420;51.202;8.698;2022-09-17T04:37:59;11.40;;;4.20;;
4812;SDS011;2420;51.202;8.698;2022-09-17T04:40:25;10.57;;;4.55;;
4812;SDS011;2420;51.202;8.698;2022-09-17T04:42:52;13.82;;;4.57;;
4812;SDS011;2420;51.202;8.698;2022-09-17T04:45:19;11.65;;;4.60;;
4812;SDS011;2420;51.202;8.698;2022-09-17T04:47:45;13.38;;;5.07;;
4812;SDS011;2420;51.202;8.698;2022-09-17T04:50:11;11.25;;;4.93;;
4812;SDS011;2420;51.202;8.698;2022-09-17T04:52:40;13.15;;;4.85;;
4812;SDS011;2420;51.202;8.698;2022-09-17T04:55:07;12.55;;;4.88;;
4812;SDS011;2420;51.202;8.698;2022-09-17T04:57:33;14.07;;;5.22;;
4812;SDS011;2420;51.202;8.698;2022-09-17T04:59:58;13.23;;;5.80;;
4812;SDS011;2420;51.202;8.698;2022-09-17T05:02:24;12.60;;;4.80;;
4812;SDS011;2420;51.202;8.698;2022-09-17T05:04:50;10.07;;;4.45;;
4812;SDS011;2420;51.202;8.698;2022-09-17T05:07:15;10.95;;;4.53;;
4812;SDS011;2420;51.202;8.698;2022-09-17T05:09:41;11.65;;;4.68;;
4812;SDS011;2420;51.202;8.698;2022-09-17T05:12:06;10.38;;;4.25;;
4812;SDS011;2420;51.202;8.698;2022-09-17T05:14:32;14.88;;;4.50;;
4812;SDS011;2420;51.202;8.698;2022-09-17T05:16:57;11.82;;;5.20;;
4812;SDS011;2420;51.202;8.698;2022-09-17T05:19:23;8.52;;;4.55;;
4812;SDS011;2420;51.202;8.698;2022-09-17T05:21:48;10.77;;;4.93;;
4812;SDS011;2420;51.202;8.698;2022-09-17T05:24:14;12.63;;;4.90;;
4812;SDS011;2420;51.202;8.698;2022-09-17T05:26:39;11.02;;;4.45;;
4812;SDS011;2420;51.202;8.698;2022-09-17T05:29:05;9.02;;;4.50;;
4812;SDS011;2420;51.202;8.698;2022-09-17T05:31:31;8.00;;;4.47;;
4812;SDS011;2420;51.202;8.698;2022-09-17T05:33:56;11.73;;;5.13;;
4812;SDS011;2420;51.202;8.698;2022-09-17T05:36:23;11.75;;;4.47;;
4812;SDS011;2420;51.202;8.698;2022-09-17T05:38:49;14.35;;;4.90;;
4812;SDS011;2420;51.202;8.698;2022-09-17T05:41:14;7.90;;;3.90;;
4812;SDS011;2420;51.202;8.698;2022-09-17T05:43:41;9.82;;;4.05;;
4812;SDS011;2420;51.202;8.698;2022-09-17T05:46:08;8.95;;;4.20;;
4812;SDS011;2420;51.202;8.698;2022-09-17T05:48:34;12.23;;;4.13;;
4812;SDS011;2420;51.202;8.698;2022-09-17T05:51:00;11.57;;;3.80;;
4812;SDS011;2420;51.202;8.698;2022-09-17T05:53:26;8.90;;;3.67;;
4812;SDS011;2420;51.202;8.698;2022-09-17T05:55:55;14.63;;;4.65;;
4812;SDS011;2420;51.202;8.698;2022-09-17T05:58:21;11.70;;;3.83;;
4812;SDS011;2420;51.202;8.698;2022-09-17T06:00:46;11.77;;;4.05;;
4812;SDS011;2420;51.202;8.698;2022-09-17T06:03:13;12.57;;;3.70;;
4812;SDS011;2420;51.202;8.698;2022-09-17T06:05:39;11.40;;;3.50;;
4812;SDS011;2420;51.202;8.698;2022-09-17T06:08:05;10.18;;;3.70;;
4812;SDS011;2420;51.202;8.698;2022-09-17T06:10:34;11.18;;;3.42;;
4812;SDS011;2420;51.202;8.698;2022-09-17T06:13:01;9.60;;;4.20;;
4812;SDS011;2420;51.202;8.698;2022-09-17T06:15:27;12.45;;;4.75;;
4812;SDS011;2420;51.202;8.698;2022-09-17T06:17:52;8.70;;;4.50;;
4812;SDS011;2420;51.202;8.698;2022-09-17T06:20:18;8.63;;;3.75;;
4812;SDS011;2420;51.202;8.698;2022-09-17T06:22:45;9.75;;;4.25;;
4812;SDS011;2420;51.202;8.698;2022-09-17T06:25:11;7.32;;;3.53;;
4812;SDS011;2420;51.202;8.698;2022-09-17T06:27:36;10.07;;;3.42;;
4812;SDS011;2420;51.202;8.698;2022-09-17T06:30:02;6.80;;;3.40;;
4812;SDS011;2420;51.202;8.698;2022-09-17T06:32:29;10.80;;;3.58;;
4812;SDS011;2420;51.202;8.698;2022-09-17T06:34:54;10.85;;;3.92;;
4812;SDS011;2420;51.202;8.698;2022-09-17T06:37:27;10.43;;;3.70;;
4812;SDS011;2420;51.202;8.698;2022-09-17T06:39:54;10.25;;;4.05;;
4812;SDS011;2420;51.202;8.698;2022-09-17T06:42:20;9.45;;;3.13;;
4812;SDS011;2420;51.202;8.698;2022-09-17T06:44:46;6.85;;;3.00;;
4812;SDS011;2420;51.202;8.698;2022-09-17T06:47:12;9.35;;;3.58;;
4812;SDS011;2420;51.202;8.698;2022-09-17T06:49:37;11.73;;;3.45;;
4812;SDS011;2420;51.202;8.698;2022-09-17T06:52:03;7.63;;;3.20;;
4812;SDS011;2420;51.202;8.698;2022-09-17T06:54:31;7.50;;;3.05;;
4812;SDS011;2420;51.202;8.698;2022-09-17T06:56:57;9.88;;;3.45;;
4812;SDS011;2420;51.202;8.698;2022-09-17T06:59:23;11.27;;;3.50;;
4812;SDS011;2420;51.202;8.698;2022-09-17T07:01:49;13.13;;;3.25;;
4812;SDS011;2420;51.202;8.698;2022-09-17T07:04:15;7.53;;;3.05;;
4812;SDS011;2420;51.202;8.698;2022-09-17T07:06:44;8.25;;;3.35;;
4812;SDS011;2420;51.202;8.698;2022-09-17T07:09:10;7.63;;;3.08;;
4812;SDS011;2420;51.202;8.698;2022-09-17T07:11:36;9.00;;;3.22;;
4812;SDS011;2420;51.202;8.698;2022-09-17T07:14:02;12.98;;;3.38;;
4812;SDS011;2420;51.202;8.698;2022-09-17T07:16:29;6.55;;;2.83;;
4812;SDS011;2420;51.202;8.698;2022-09-17T07:19:00;11.88;;;3.38;;
4812;SDS011;2420;51.202;8.698;2022-09-17T07:21:26;8.52;;;2.97;;
4812;SDS011;2420;51.202;8.698;2022-09-17T07:23:52;7.00;;;2.88;;
4812;SDS011;2420;51.202;8.698;2022-09-17T07:26:18;7.72;;;2.85;;
4812;SDS011;2420;51.202;8.698;2022-09-17T07:28:43;7.53;;;2.67;;
4812;SDS011;2420;51.202;8.698;2022-09-17T07:31:09;11.95;;;2.65;;
4812;SDS011;2420;51.202;8.698;2022-09-17T07:33:36;5.72;;;2.38;;
4812;SDS011;2420;51.202;8.698;2022-09-17T07:36:04;5.10;;;2.72;;
4812;SDS011;2420;51.202;8.698;2022-09-17T07:38:32;7.50;;;2.60;;
4812;SDS011;2420;51.202;8.698;2022-09-17T07:41:03;9.52;;;2.60;;
4812;SDS011;2420;51.202;8.698;2022-09-17T07:43:29;4.97;;;2.22;;
4812;SDS011;2420;51.202;8.698;2022-09-17T07:45:57;6.72;;;2.70;;
4812;SDS011;2420;51.202;8.698;2022-09-17T07:48:23;8.35;;;2.70;;
4812;SDS011;2420;51.202;8.698;2022-09-17T07:50:50;8.15;;;2.53;;
4812;SDS011;2420;51.202;8.698;2022-09-17T07:53:16;9.88;;;2.97;;
4812;SDS011;2420;51.202;8.698;2022-09-17T07:55:42;6.28;;;2.22;;
4812;SDS011;2420;51.202;8.698;2022-09-17T07:58:29;5.25;;;2.70;;
4812;SDS011;2420;51.202;8.698;2022-09-17T08:00:59;6.50;;;2.65;;
4812;SDS011;2420;51.202;8.698;2022-09-17T08:03:29;9.23;;;2.70;;
4812;SDS011;2420;51.202;8.698;2022-09-17T08:06:04;6.00;;;2.63;;
4812;SDS011;2420;51.202;8.698;2022-09-17T08:08:32;7.82;;;2.50;;
4812;SDS011;2420;51.202;8.698;2022-09-17T08:11:03;6.95;;;2.15;;
4812;SDS011;2420;51.202;8.698;2022-09-17T08:13:40;5.93;;;2.50;;
4812;SDS011;2420;51.202;8.698;2022-09-17T08:16:07;6.65;;;2.40;;
4812;SDS011;2420;51.202;8.698;2022-09-17T08:18:34;6.82;;;2.72;;
4812;SDS011;2420;51.202;8.698;2022-09-17T08:21:00;7.20;;;2.67;;
4812;SDS011;2420;51.202;8.698;2022-09-17T08:23:27;5.85;;;2.40;;
4812;SDS011;2420;51.202;8.698;2022-09-17T08:25:54;7.22;;;2.03;;
4812;SDS011;2420;51.202;8.698;2022-09-17T08:28:21;7.68;;;2.80;;
4812;SDS011;2420;51.202;8.698;2022-09-17T08:30:49;7.40;;;2.40;;
4812;SDS011;2420;51.202;8.698;2022-09-17T08:33:15;10.05;;;2.25;;
4812;SDS011;2420;51.202;8.698;2022-09-17T08:35:41;8.52;;;2.42;;
4812;SDS011;2420;51.202;8.698;2022-09-17T08:38:07;8.55;;;2.15;;
4812;SDS011;2420;51.202;8.698;2022-09-17T08:40:34;5.25;;;2.40;;
4812;SDS011;2420;51.202;8.698;2022-09-17T08:43:07;4.80;;;2.20;;
4812;SDS011;2420;51.202;8.698;2022-09-17T08:45:40;5.10;;;2.05;;
4812;SDS011;2420;51.202;8.698;2022-09-17T08:48:07;5.47;;;1.77;;
4812;SDS011;2420;51.202;8.698;2022-09-17T08:50:37;10.02;;;2.30;;
4812;SDS011;2420;51.202;8.698;2022-09-17T08:55:45;8.10;;;2.63;;
4812;SDS011;2420;51.202;8.698;2022-09-17T09:31:30;8.02;;;2.55;;
4812;SDS011;2420;51.202;8.698;2022-09-17T09:33:58;10.43;;;2.20;;
4812;SDS011;2420;51.202;8.698;2022-09-17T09:36:27;7.47;;;2.38;;
4812;SDS011;2420;51.202;8.698;2022-09-17T09:39:00;7.53;;;2.80;;
4812;SDS011;2420;51.202;8.698;2022-09-17T09:41:57;7.50;;;2.60;;
4812;SDS011;2420;51.202;8.698;2022-09-17T09:44:24;5.70;;;2.25;;
4812;SDS011;2420;51.202;8.698;2022-09-17T09:47:07;7.18;;;2.00;;
4812;SDS011;2420;51.202;8.698;2022-09-17T09:55:27;5.15;;;1.98;;
4812;SDS011;2420;51.202;8.698;2022-09-17T10:01:01;5.03;;;1.55;;
4812;SDS011;2420;51.202;8.698;2022-09-17T10:03:31;5.72;;;1.67;;
4812;SDS011;2420;51.202;8.698;2022-09-17T10:06:08;5.82;;;1.80;;
4812;SDS011;2420;51.202;8.698;2022-09-17T10:08:36;11.52;;;2.60;;
4812;SDS011;2420;51.202;8.698;2022-09-17T10:13:45;7.78;;;2.25;;
4812;SDS011;2420;51.202;8.698;2022-09-17T10:19:12;4.75;;;1.58;;
4812;SDS011;2420;51.202;8.698;2022-09-17T10:21:49;7.68;;;1.70;;
4812;SDS011;2420;51.202;8.698;2022-09-17T10:24:26;6.05;;;1.67;;
4812;SDS011;2420;51.202;8.698;2022-09-17T10:27:04;3.65;;;1.67;;
4812;SDS011;2420;51.202;8.698;2022-09-17T10:29:40;5.18;;;1.80;;
4812;SDS011;2420;51.202;8.698;2022-09-17T10:32:12;4.35;;;1.70;;
4812;SDS011;2420;51.202;8.698;2022-09-17T10:34:40;4.43;;;1.80;;
4812;SDS011;2420;51.202;8.698;2022-09-17T10:37:15;5.95;;;2.35;;
4812;SDS011;2420;51.202;8.698;2022-09-17T10:42:42;6.28;;;1.80;;
4812;SDS011;2420;51.202;8.698;2022-09-17T10:45:10;6.68;;;1.60;;
4812;SDS011;2420;51.202;8.698;2022-09-17T10:47:48;5.63;;;1.90;;
4812;SDS011;2420;51.202;8.698;2022-09-17T10:50:15;4.00;;;1.63;;
4812;SDS011;2420;51.202;8.698;2022-09-17T10:52:47;5.90;;;1.70;;
4812;SDS011;2420;51.202;8.698;2022-09-17T11:08:33;5.35;;;1.33;;
4812;SDS011;2420;51.202;8.698;2022-09-17T11:16:44;5.28;;;1.38;;
4812;SDS011;2420;51.202;8.698;2022-09-17T11:19:30;6.53;;;1.40;;
4812;SDS011;2420;51.202;8.698;2022-09-17T11:22:23;3.28;;;1.42;;
4812;SDS011;2420;51.202;8.698;2022-09-17T11:30:48;2.33;;;1.08;;
4812;SDS011;2420;51.202;8.698;2022-09-17T11:36:14;1.98;;;1.00;;
4812;SDS011;2420;51.202;8.698;2022-09-17T11:38:46;2.67;;;1.00;;
4812;SDS011;2420;51.202;8.698;2022-09-17T11:44:07;2.65;;;0.98;;
4812;SDS011;2420;51.202;8.698;2022-09-17T11:46:52;2.05;;;1.17;;
4812;SDS011;2420;51.202;8.698;2022-09-17T11:49:44;5.53;;;1.25;;
4812;SDS011;2420;51.202;8.698;2022-09-17T11:52:22;2.50;;;1.17;;
4812;SDS011;2420;51.202;8.698;2022-09-17T11:54:54;2.38;;;1.17;;
4812;SDS011;2420;51.202;8.698;2022-09-17T11:57:42;4.65;;;1.73;;
4812;SDS011;2420;51.202;8.698;2022-09-17T12:05:32;4.70;;;1.23;;
4812;SDS011;2420;51.202;8.698;2022-09-17T12:13:25;1.15;;;1.05;;
4812;SDS011;2420;51.202;8.698;2022-09-17T12:16:21;2.42;;;1.27;;
4812;SDS011;2420;51.202;8.698;2022-09-17T12:21:29;1.52;;;0.80;;
4812;SDS011;2420;51.202;8.698;2022-09-17T12:37:26;1.92;;;1.10;;
4812;SDS011;2420;51.202;8.698;2022-09-17T12:43:08;1.63;;;1.10;;
4812;SDS011;2420;51.202;8.698;2022-09-17T12:46:18;2.40;;;1.40;;
4812;SDS011;2420;51.202;8.698;2022-09-17T12:57:01;4.40;;;1.15;;
4812;SDS011;2420;51.202;8.698;2022-09-17T13:00:09;2.60;;;1.15;;
4812;SDS011;2420;51.202;8.698;2022-09-17T13:02:43;1.52;;;1.30;;
4812;SDS011;2420;51.202;8.698;2022-09-17T13:16:59;1.98;;;1.10;;
4812;SDS011;2420;51.202;8.698;2022-09-17T13:19:43;2.08;;;1.20;;
4812;SDS011;2420;51.202;8.698;2022-09-17T13:22:20;4.32;;;1.00;;
4812;SDS011;2420;51.202;8.698;2022-09-17T13:25:00;1.35;;;1.02;;
4812;SDS011;2420;51.202;8.698;2022-09-17T13:27:30;3.22;;;1.00;;
4812;SDS011;2420;51.202;8.698;2022-09-17T13:29:57;2.80;;;0.95;;
4812;SDS011;2420;51.202;8.698;2022-09-17T13:40:22;2.50;;;1.10;;
4812;SDS011;2420;51.202;8.698;2022-09-17T13:43:12;2.30;;;1.02;;
4812;SDS011;2420;51.202;8.698;2022-09-17T13:46:04;4.05;;;1.08;;
4812;SDS011;2420;51.202;8.698;2022-09-17T13:48:34;1.27;;;1.02;;
4812;SDS011;2420;51.202;8.698;2022-09-17T13:53:54;4.50;;;2.45;;
4812;SDS011;2420;51.202;8.698;2022-09-17T13:59:08;1.38;;;0.95;;
4812;SDS011;2420;51.202;8.698;2022-09-17T14:04:34;1.92;;;0.85;;
4812;SDS011;2420;51.202;8.698;2022-09-17T14:06:59;1.70;;;0.80;;
4812;SDS011;2420;51.202;8.698;2022-09-17T14:09:55;3.13;;;1.38;;
4812;SDS011;2420;51.202;8.698;2022-09-17T14:12:49;0.98;;;0.77;;
4812;SDS011;2420;51.202;8.698;2022-09-17T14:20:51;2.13;;;0.90;;
4812;SDS011;2420;51.202;8.698;2022-09-17T14:23:19;1.33;;;0.90;;
4812;SDS011;2420;51.202;8.698;2022-09-17T14:25:47;0.88;;;0.70;;
4812;SDS011;2420;51.202;8.698;2022-09-17T14:31:17;1.08;;;0.80;;
4812;SDS011;2420;51.202;8.698;2022-09-17T14:33:45;2.97;;;1.20;;
4812;SDS011;2420;51.202;8.698;2022-09-17T14:36:17;6.78;;;1.60;;
4812;SDS011;2420;51.202;8.698;2022-09-17T14:38:49;1.42;;;0.90;;
4812;SDS011;2420;51.202;8.698;2022-09-17T14:41:19;1.05;;;0.93;;
4812;SDS011;2420;51.202;8.698;2022-09-17T14:44:02;1.92;;;1.10;;
4812;SDS011;2420;51.202;8.698;2022-09-17T14:49:25;1.80;;;1.05;;
4812;SDS011;2420;51.202;8.698;2022-09-17T14:51:53;3.05;;;1.50;;
4812;SDS011;2420;51.202;8.698;2022-09-17T14:54:20;3.03;;;1.30;;
4812;SDS011;2420;51.202;8.698;2022-09-17T15:00:03;4.40;;;1.40;;
4812;SDS011;2420;51.202;8.698;2022-09-17T15:04:57;2.05;;;1.00;;
4812;SDS011;2420;51.202;8.698;2022-09-17T15:07:24;2.47;;;1.00;;
4812;SDS011;2420;51.202;8.698;2022-09-17T15:09:50;1.25;;;0.88;;
4812;SDS011;2420;51.202;8.698;2022-09-17T15:12:19;1.45;;;0.90;;
4812;SDS011;2420;51.202;8.698;2022-09-17T15:14:52;1.13;;;0.82;;
4812;SDS011;2420;51.202;8.698;2022-09-17T15:17:20;2.50;;;1.10;;
4812;SDS011;2420;51.202;8.698;2022-09-17T15:19:49;3.80;;;1.25;;
4812;SDS011;2420;51.202;8.698;2022-09-17T15:22:35;1.27;;;1.10;;
4812;SDS011;2420;51.202;8.698;2022-09-17T15:25:27;2.67;;;1.05;;
4812;SDS011;2420;51.202;8.698;2022-09-17T15:27:54;1.85;;;0.98;;
4812;SDS011;2420;51.202;8.698;2022-09-17T15:30:23;2.72;;;0.93;;
4812;SDS011;2420;51.202;8.698;2022-09-17T15:32:50;1.75;;;1.10;;
4812;SDS011;2420;51.202;8.698;2022-09-17T15:35:21;2.03;;;0.90;;
4812;SDS011;2420;51.202;8.698;2022-09-17T15:37:53;3.15;;;1.05;;
4812;SDS011;2420;51.202;8.698;2022-09-17T15:43:01;1.98;;;1.10;;
4812;SDS011;2420;51.202;8.698;2022-09-17T15:45:28;2.30;;;0.90;;
4812;SDS011;2420;51.202;8.698;2022-09-17T15:47:59;2.05;;;1.00;;
4812;SDS011;2420;51.202;8.698;2022-09-17T15:50:29;3.75;;;1.20;;
4812;SDS011;2420;51.202;8.698;2022-09-17T15:55:35;4.10;;;1.02;;
4812;SDS011;2420;51.202;8.698;2022-09-17T15:58:16;3.35;;;1.40;;
4812;SDS011;2420;51.202;8.698;2022-09-17T16:00:45;2.25;;;0.93;;
4812;SDS011;2420;51.202;8.698;2022-09-17T16:05:59;3.88;;;1.40;;
4812;SDS011;2420;51.202;8.698;2022-09-17T16:08:25;1.85;;;1.17;;
4812;SDS011;2420;51.202;8.698;2022-09-17T16:10:58;1.88;;;1.30;;
4812;SDS011;2420;51.202;8.698;2022-09-17T16:13:23;2.45;;;1.20;;
4812;SDS011;2420;51.202;8.698;2022-09-17T16:15:49;1.92;;;1.00;;
4812;SDS011;2420;51.202;8.698;2022-09-17T16:18:14;2.05;;;1.30;;
4812;SDS011;2420;51.202;8.698;2022-09-17T16:20:40;3.17;;;1.52;;
4812;SDS011;2420;51.202;8.698;2022-09-17T16:23:06;3.88;;;1.60;;
4812;SDS011;2420;51.202;8.698;2022-09-17T16:25:31;2.40;;;1.55;;
4812;SDS011;2420;51.202;8.698;2022-09-17T16:27:58;3.97;;;1.50;;
4812;SDS011;2420;51.202;8.698;2022-09-17T16:30:26;3.90;;;1.85;;
4812;SDS011;2420;51.202;8.698;2022-09-17T16:32:52;5.95;;;1.45;;
4812;SDS011;2420;51.202;8.698;2022-09-17T16:35:19;2.13;;;1.15;;
4812;SDS011;2420;51.202;8.698;2022-09-17T16:37:47;4.43;;;1.48;;
4812;SDS011;2420;51.202;8.698;2022-09-17T16:40:13;1.50;;;1.20;;
4812;SDS011;2420;51.202;8.698;2022-09-17T16:42:38;2.85;;;1.20;;
4812;SDS011;2420;51.202;8.698;2022-09-17T16:45:05;3.97;;;1.55;;
4812;SDS011;2420;51.202;8.698;2022-09-17T16:47:35;5.82;;;1.20;;
4812;SDS011;2420;51.202;8.698;2022-09-17T16:50:05;5.55;;;1.27;;
4812;SDS011;2420;51.202;8.698;2022-09-17T16:52:35;3.72;;;1.30;;
4812;SDS011;2420;51.202;8.698;2022-09-17T16:55:01;2.53;;;1.23;;
4812;SDS011;2420;51.202;8.698;2022-09-17T16:57:28;4.38;;;1.35;;
4812;SDS011;2420;51.202;8.698;2022-09-17T16:59:54;4.38;;;1.27;;
4812;SDS011;2420;51.202;8.698;2022-09-17T17:02:20;1.45;;;1.10;;
4812;SDS011;2420;51.202;8.698;2022-09-17T17:04:45;5.70;;;1.10;;
4812;SDS011;2420;51.202;8.698;2022-09-17T17:07:11;5.40;;;1.58;;
4812;SDS011;2420;51.202;8.698;2022-09-17T17:09:37;3.60;;;1.30;;
4812;SDS011;2420;51.202;8.698;2022-09-17T17:12:03;2.33;;;1.20;;
4812;SDS011;2420;51.202;8.698;2022-09-17T17:14:28;5.43;;;1.45;;
4812;SDS011;2420;51.202;8.698;2022-09-17T17:16:54;4.80;;;1.45;;
4812;SDS011;2420;51.202;8.698;2022-09-17T17:19:20;5.32;;;1.33;;
4812;SDS011;2420;51.202;8.698;2022-09-17T17:21:48;4.30;;;1.35;;
4812;SDS011;2420;51.202;8.698;2022-09-17T17:24:14;2.58;;;1.30;;
4812;SDS011;2420;51.202;8.698;2022-09-17T17:26:40;6.28;;;1.50;;
4812;SDS011;2420;51.202;8.698;2022-09-17T17:29:05;2.83;;;1.73;;
4812;SDS011;2420;51.202;8.698;2022-09-17T17:31:32;4.00;;;1.35;;
4812;SDS011;2420;51.202;8.698;2022-09-17T17:33:57;2.58;;;1.20;;
4812;SDS011;2420;51.202;8.698;2022-09-17T17:36:23;2.35;;;1.20;;
4812;SDS011;2420;51.202;8.698;2022-09-17T17:38:48;4.40;;;1.17;;
4812;SDS011;2420;51.202;8.698;2022-09-17T17:41:14;4.10;;;1.15;;
4812;SDS011;2420;51.202;8.698;2022-09-17T17:43:40;3.13;;;1.00;;
4812;SDS011;2420;51.202;8.698;2022-09-17T17:46:09;1.42;;;0.98;;
4812;SDS011;2420;51.202;8.698;2022-09-17T17:48:35;1.52;;;0.95;;
4812;SDS011;2420;51.202;8.698;2022-09-17T17:51:02;4.78;;;1.17;;
4812;SDS011;2420;51.202;8.698;2022-09-17T17:53:29;2.70;;;1.30;;
4812;SDS011;2420;51.202;8.698;2022-09-17T17:55:56;3.17;;;1.20;;
4812;SDS011;2420;51.202;8.698;2022-09-17T17:58:23;3.97;;;1.20;;
4812;SDS011;2420;51.202;8.698;2022-09-17T18:00:48;5.97;;;1.30;;
4812;SDS011;2420;51.202;8.698;2022-09-17T18:03:14;4.13;;;1.60;;
4812;SDS011;2420;51.202;8.698;2022-09-17T18:05:40;2.78;;;1.30;;
4812;SDS011;2420;51.202;8.698;2022-09-17T18:08:05;2.80;;;1.40;;
4812;SDS011;2420;51.202;8.698;2022-09-17T18:10:30;3.45;;;1.33;;
4812;SDS011;2420;51.202;8.698;2022-09-17T18:12:56;5.07;;;1.27;;
4812;SDS011;2420;51.202;8.698;2022-09-17T18:15:21;2.42;;;1.23;;
4812;SDS011;2420;51.202;8.698;2022-09-17T18:17:47;5.88;;;2.13;;
4812;SDS011;2420;51.202;8.698;2022-09-17T18:20:14;5.18;;;1.80;;
4812;SDS011;2420;51.202;8.698;2022-09-17T18:22:40;3.60;;;1.92;;
4812;SDS011;2420;51.202;8.698;2022-09-17T18:25:05;4.05;;;1.50;;
4812;SDS011;2420;51.202;8.698;2022-09-17T18:27:31;5.43;;;1.80;;
4812;SDS011;2420;51.202;8.698;2022-09-17T18:29:57;2.97;;;1.35;;
4812;SDS011;2420;51.202;8.698;2022-09-17T18:32:22;4.85;;;1.60;;
4812;SDS011;2420;51.202;8.698;2022-09-17T18:34:48;2.85;;;1.45;;
4812;SDS011;2420;51.202;8.698;2022-09-17T18:37:13;2.85;;;1.40;;
4812;SDS011;2420;51.202;8.698;2022-09-17T18:39:39;6.75;;;1.50;;
4812;SDS011;2420;51.202;8.698;2022-09-17T18:42:04;2.75;;;1.58;;
4812;SDS011;2420;51.202;8.698;2022-09-17T18:44:30;6.72;;;1.63;;
4812;SDS011;2420;51.202;8.698;2022-09-17T18:46:56;2.92;;;1.65;;
4812;SDS011;2420;51.202;8.698;2022-09-17T18:49:21;5.68;;;2.00;;
4812;SDS011;2420;51.202;8.698;2022-09-17T18:51:47;3.42;;;1.50;;
4812;SDS011;2420;51.202;8.698;2022-09-17T18:54:12;5.97;;;1.77;;
4812;SDS011;2420;51.202;8.698;2022-09-17T18:56:38;3.97;;;1.60;;
4812;SDS011;2420;51.202;8.698;2022-09-17T18:59:05;2.25;;;1.67;;
4812;SDS011;2420;51.202;8.698;2022-09-17T19:01:31;4.40;;;1.60;;
4812;SDS011;2420;51.202;8.698;2022-09-17T19:03:57;4.60;;;1.63;;